Time;durP1;ratioP1;P1;durP2;ratioP2;P2;SDS_P1;SDS_P2;PMS_P1;PMS_P2;Temp;Humidity;BMP_temperature;BMP_pressure;BME280_temperature;BME280_humidity;BME280_pressure;Samples;Min_cycle;Max_cycle;Signal;HPM_P1;HPM_P2
2021/12/29 00:00:57;;;;;;;;;;;7.70;99.90;;;;;;5034330;28;20383;-39
2021/12/29 00:03:22;;;;;;;;;;;7.70;99.90;;;;;;5033897;28;20265;-39
2021/12/29 00:05:48;;;;;;;;;;;7.70;99.90;;;;;;5034246;28;19916;-39
2021/12/29 00:08:13;;;;;;;;;;;7.70;99.90;;;;;;5026596;28;19916;-40
2021/12/29 00:10:39;;;;;;;;;;;7.70;99.90;;;;;;5013807;28;19909;-39
2021/12/29 00:13:05;;;;;;;;;;;7.70;99.90;;;;;;5013682;28;19912;-40
2021/12/29 00:15:31;;;;;;;;;;;7.70;99.90;;;;;;5014381;28;19940;-40
2021/12/29 00:17:57;;;;;;;;;;;7.70;99.90;;;;;;5019958;28;19951;-39
2021/12/29 00:20:28;;;;;;;;;;;7.70;99.90;;;;;;5033984;28;19948;-39
2021/12/29 00:22:54;;;;;;;;;;;7.70;99.90;;;;;;5033454;28;19912;-39
2021/12/29 00:25:20;;;;;;;;;;;7.70;99.90;;;;;;5034076;28;19933;-39
2021/12/29 00:27:45;;;;;;;;;;;7.60;99.90;;;;;;5029887;28;19951;-39
2021/12/29 00:30:12;;;;;;;;;;;7.70;99.90;;;;;;5013719;28;19960;-40
2021/12/29 00:32:37;;;;;;;;;;;7.70;99.90;;;;;;5014063;28;20329;-39
2021/12/29 00:35:03;;;;;;;;;;;7.60;99.90;;;;;;5013971;28;19996;-39
2021/12/29 00:37:29;;;;;;;;;;;7.60;99.90;;;;;;5014095;28;19909;-40
2021/12/29 00:39:54;;;;;;;;;;;7.60;99.90;;;;;;5033658;28;20410;-39
2021/12/29 00:42:20;;;;;;;;;;;7.60;99.90;;;;;;5033664;28;20368;-40
2021/12/29 00:44:45;;;;;;;;;;;7.60;99.90;;;;;;5033092;28;19912;-40
2021/12/29 00:47:12;;;;;;;;;;;7.60;99.90;;;;;;5021518;28;19956;-40
2021/12/29 00:49:38;;;;;;;;;;;7.50;99.90;;;;;;5014846;28;19909;-39
2021/12/29 00:52:05;;;;;;;;;;;7.50;99.90;;;;;;5013257;28;20260;-39
2021/12/29 00:54:31;;;;;;;;;;;7.50;99.90;;;;;;5013937;28;19913;-39
2021/12/29 00:56:56;;;;;;;;;;;7.50;99.90;;;;;;5020707;28;19917;-39
2021/12/29 00:59:23;;;;;;;;;;;7.50;99.90;;;;;;5033036;28;19905;-39
2021/12/29 01:01:49;;;;;;;;;;;7.40;99.90;;;;;;5033329;28;19914;-39
2021/12/29 01:04:15;;;;;;;;;;;7.50;99.90;;;;;;5033456;28;19912;-39
2021/12/29 01:06:41;;;;;;;;;;;7.40;99.90;;;;;;5027155;28;19910;-39
2021/12/29 01:09:06;;;;;;;;;;;7.40;99.90;;;;;;5013602;28;19994;-39
2021/12/29 01:11:31;;;;;;;;;;;7.40;99.90;;;;;;5013618;28;19907;-39
2021/12/29 01:13:57;;;;;;;;;;;7.40;99.90;;;;;;5013111;28;19956;-39
2021/12/29 01:19:03;;;;;;;;;;;7.40;99.90;;;;;;5032759;28;20261;-41
2021/12/29 01:21:28;;;;;;;;;;;7.40;99.90;;;;;;5033173;28;20359;-40
2021/12/29 01:23:54;;;;;;;;;;;7.50;99.90;;;;;;5033827;28;19970;-39
2021/12/29 01:26:19;;;;;;;;;;;7.50;99.90;;;;;;5034427;28;19944;-38
2021/12/29 01:28:45;;;;;;;;;;;7.50;99.90;;;;;;5017466;28;20276;-39
2021/12/29 01:31:10;;;;;;;;;;;7.50;99.90;;;;;;5017406;28;19996;-40
2021/12/29 01:33:36;;;;;;;;;;;7.50;99.90;;;;;;5016832;28;19913;-39
2021/12/29 01:36:01;;;;;;;;;;;7.50;99.90;;;;;;5017242;28;20349;-39
2021/12/29 01:38:27;;;;;;;;;;;7.50;99.90;;;;;;5017471;28;19952;-40
2021/12/29 01:40:52;;;;;;;;;;;7.50;99.90;;;;;;5016534;28;19959;-40
2021/12/29 01:43:18;;;;;;;;;;;7.60;99.90;;;;;;5017165;28;19913;-39
2021/12/29 01:45:44;;;;;;;;;;;7.60;99.90;;;;;;5017078;28;20265;-40
2021/12/29 01:48:09;;;;;;;;;;;7.60;99.90;;;;;;5032899;28;19916;-41
2021/12/29 01:50:35;;;;;;;;;;;7.60;99.90;;;;;;5035094;28;20325;-39
2021/12/29 01:53:07;;;;;;;;;;;7.70;99.90;;;;;;5036803;28;20004;-39
2021/12/29 01:55:33;;;;;;;;;;;7.70;99.90;;;;;;5036439;28;19905;-41
2021/12/29 01:57:59;;;;;;;;;;;7.70;99.90;;;;;;5020955;28;20241;-39
2021/12/29 02:00:27;;;;;;;;;;;7.70;99.90;;;;;;5016879;28;20344;-39
2021/12/29 02:02:53;;;;;;;;;;;7.70;99.90;;;;;;5016200;28;19913;-39
2021/12/29 02:05:18;;;;;;;;;;;7.70;99.90;;;;;;5016788;28;20229;-40
2021/12/29 02:07:44;;;;;;;;;;;7.70;99.90;;;;;;5029242;28;19909;-40
2021/12/29 02:10:11;;;;;;;;;;;7.70;99.90;;;;;;5035975;28;19913;-39
2021/12/29 02:12:36;;;;;;;;;;;7.70;99.90;;;;;;5036534;28;20259;-40
2021/12/29 02:15:03;;;;;;;;;;;7.70;99.90;;;;;;5036270;28;19905;-39
2021/12/29 02:17:29;;;;;;;;;;;7.80;99.90;;;;;;5025004;28;19910;-40
2021/12/29 02:20:03;;;;;;;;;;;7.70;99.90;;;;;;5016542;28;19909;-41
2021/12/29 02:22:47;;;;;;;;;;;7.80;99.90;;;;;;5015795;28;20427;-40
2021/12/29 02:27:49;;;;;;;;;;;7.70;99.90;;;;;;5028292;28;20318;-40
2021/12/29 02:30:15;;;;;;;;;;;7.70;99.90;;;;;;5035581;28;19940;-40
2021/12/29 02:32:41;;;;;;;;;;;7.80;99.90;;;;;;5035867;28;20250;-40
2021/12/29 02:35:07;;;;;;;;;;;7.80;99.90;;;;;;5035753;28;20288;-41
2021/12/29 02:37:33;;;;;;;;;;;7.80;99.90;;;;;;5024069;28;19909;-42
2021/12/29 02:39:58;;;;;;;;;;;7.80;99.90;;;;;;5017033;28;19909;-40
2021/12/29 02:42:28;;;;;;;;;;;7.80;99.90;;;;;;5015897;28;20245;-40
2021/12/29 02:44:53;;;;;;;;;;;7.80;99.90;;;;;;5015525;28;19913;-40
2021/12/29 02:47:19;;;;;;;;;;;7.80;99.90;;;;;;5024149;28;19913;-40
2021/12/29 02:49:47;;;;;;;;;;;7.80;99.90;;;;;;5035779;28;19905;-41
2021/12/29 02:52:14;;;;;;;;;;;7.80;99.90;;;;;;5035232;28;19959;-40
2021/12/29 02:54:40;;;;;;;;;;;7.90;99.90;;;;;;5035531;28;19935;-40
2021/12/29 02:57:05;;;;;;;;;;;7.80;99.90;;;;;;5033533;28;20377;-40
2021/12/29 02:59:31;;;;;;;;;;;7.90;99.90;;;;;;5035073;28;19958;-41
2021/12/29 03:01:56;;;;;;;;;;;7.90;99.90;;;;;;5035410;28;20256;-43
2021/12/29 03:04:22;;;;;;;;;;;7.90;99.90;;;;;;5035414;28;19905;-41
2021/12/29 03:06:47;;;;;;;;;;;7.90;99.90;;;;;;5033202;28;19913;-40
2021/12/29 03:09:16;;;;;;;;;;;7.90;99.90;;;;;;5035367;28;20370;-41
2021/12/29 03:11:42;;;;;;;;;;;7.90;99.90;;;;;;5034779;28;19912;-41
2021/12/29 03:14:07;;;;;;;;;;;7.90;99.90;;;;;;5035320;28;19905;-41
2021/12/29 03:16:34;;;;;;;;;;;7.90;99.90;;;;;;5024776;28;19913;-41
2021/12/29 03:18:59;;;;;;;;;;;7.90;99.90;;;;;;5014934;28;19906;-40
2021/12/29 03:21:25;;;;;;;;;;;7.90;99.90;;;;;;5015414;28;19915;-41
2021/12/29 03:23:51;;;;;;;;;;;8.00;99.90;;;;;;5015255;28;20398;-45
2021/12/29 03:26:16;;;;;;;;;;;8.00;99.90;;;;;;5022379;28;20273;-40
2021/12/29 03:28:43;;;;;;;;;;;8.00;99.90;;;;;;5035111;28;19951;-40
2021/12/29 03:31:14;;;;;;;;;;;8.00;99.90;;;;;;5034977;28;19920;-42
2021/12/29 03:33:40;;;;;;;;;;;8.00;99.90;;;;;;5034528;28;19905;-40
2021/12/29 03:36:06;;;;;;;;;;;8.00;99.90;;;;;;5028211;28;20341;-40
2021/12/29 03:38:34;;;;;;;;;;;8.00;99.90;;;;;;5015024;28;19967;-40
2021/12/29 03:40:59;;;;;;;;;;;8.10;99.90;;;;;;5014319;28;20039;-40
2021/12/29 03:43:26;;;;;;;;;;;8.10;99.90;;;;;;5014859;28;19992;-40
2021/12/29 03:45:52;;;;;;;;;;;8.10;99.90;;;;;;5020647;28;19916;-40
2021/12/29 03:48:19;;;;;;;;;;;8.20;99.90;;;;;;5033178;28;19956;-41
2021/12/29 03:50:46;;;;;;;;;;;8.20;99.90;;;;;;5034604;28;20276;-42
2021/12/29 03:53:13;;;;;;;;;;;8.20;99.90;;;;;;5034598;28;20039;-40
2021/12/29 03:55:43;;;;;;;;;;;8.20;99.90;;;;;;5031932;28;19992;-40
2021/12/29 03:58:08;;;;;;;;;;;8.30;99.90;;;;;;5034100;28;19955;-40
2021/12/29 04:00:34;;;;;;;;;;;8.30;99.90;;;;;;5034459;28;19959;-40
2021/12/29 04:03:00;;;;;;;;;;;8.30;99.90;;;;;;5033642;28;19913;-40
2021/12/29 04:05:25;;;;;;;;;;;8.30;99.90;;;;;;5029109;28;19910;-40
2021/12/29 04:07:53;;;;;;;;;;;8.30;99.90;;;;;;5013745;28;20423;-40
2021/12/29 04:10:20;;;;;;;;;;;8.30;99.90;;;;;;5034051;28;19909;-40
2021/12/29 04:12:45;;;;;;;;;;;8.30;99.90;;;;;;5034140;28;19905;-40
2021/12/29 04:15:12;;;;;;;;;;;8.30;99.90;;;;;;5030795;28;19916;-40
2021/12/29 04:17:38;;;;;;;;;;;8.40;99.90;;;;;;5014564;28;19937;-41
2021/12/29 04:22:53;;;;;;;;;;;8.40;99.90;;;;;;5013869;28;20280;-41
2021/12/29 04:25:23;;;;;;;;;;;8.40;99.90;;;;;;5016905;28;20758;-41
2021/12/29 04:27:50;;;;;;;;;;;8.40;99.90;;;;;;5033904;28;19915;-40
2021/12/29 04:30:15;;;;;;;;;;;8.40;99.90;;;;;;5033484;28;19974;-40
2021/12/29 04:32:41;;;;;;;;;;;8.40;99.90;;;;;;5033835;28;20359;-41
2021/12/29 04:35:06;;;;;;;;;;;8.40;99.90;;;;;;5032669;28;19959;-40
2021/12/29 04:37:32;;;;;;;;;;;8.40;99.90;;;;;;5013613;28;19905;-41
2021/12/29 04:39:57;;;;;;;;;;;8.40;99.90;;;;;;5013977;28;19905;-40
2021/12/29 04:42:22;;;;;;;;;;;8.40;99.90;;;;;;5013890;28;19920;-40
2021/12/29 04:44:48;;;;;;;;;;;8.40;99.90;;;;;;5013488;28;20268;-41
2021/12/29 04:47:13;;;;;;;;;;;8.40;99.90;;;;;;5014900;28;19913;-41
2021/12/29 04:49:41;;;;;;;;;;;8.40;99.90;;;;;;5013894;28;19906;-40
2021/12/29 04:52:07;;;;;;;;;;;8.40;99.90;;;;;;5013329;28;19906;-41
2021/12/29 04:54:33;;;;;;;;;;;8.40;99.90;;;;;;5013898;28;20000;-40
2021/12/29 04:56:58;;;;;;;;;;;8.40;99.90;;;;;;5013832;28;20011;-41
2021/12/29 04:59:25;;;;;;;;;;;8.40;99.90;;;;;;5013528;28;19905;-40
2021/12/29 05:01:50;;;;;;;;;;;8.40;99.90;;;;;;5013573;28;19909;-40
2021/12/29 05:04:21;;;;;;;;;;;8.40;99.90;;;;;;5013131;28;19936;-41
2021/12/29 05:09:30;;;;;;;;;;;8.40;99.90;;;;;;5033662;28;20355;-40
2021/12/29 05:11:59;;;;;;;;;;;8.40;99.90;;;;;;5032813;28;19905;-40
2021/12/29 05:14:24;;;;;;;;;;;8.40;99.90;;;;;;5033280;28;20402;-42
2021/12/29 05:16:50;;;;;;;;;;;8.40;99.90;;;;;;5019801;28;19909;-40
2021/12/29 05:19:15;;;;;;;;;;;8.50;99.90;;;;;;5013139;28;19905;-40
2021/12/29 05:21:40;;;;;;;;;;;8.50;99.90;;;;;;5013555;28;20039;-40
2021/12/29 05:24:06;;;;;;;;;;;8.40;99.90;;;;;;5013473;28;19912;-41
2021/12/29 05:26:31;;;;;;;;;;;8.40;99.90;;;;;;5022219;28;19916;-42
2021/12/29 05:28:57;;;;;;;;;;;8.50;99.90;;;;;;5033134;28;19952;-42
2021/12/29 05:31:23;;;;;;;;;;;8.50;99.90;;;;;;5033314;28;20368;-40
2021/12/29 05:33:49;;;;;;;;;;;8.40;99.90;;;;;;5032601;28;20370;-40
2021/12/29 05:36:14;;;;;;;;;;;8.50;99.90;;;;;;5027024;28;19916;-39
2021/12/29 05:38:40;;;;;;;;;;;8.40;99.90;;;;;;5013492;28;20063;-39
2021/12/29 05:41:05;;;;;;;;;;;8.50;99.90;;;;;;5012713;28;19968;-40
2021/12/29 05:43:31;;;;;;;;;;;8.50;99.90;;;;;;5013360;28;19909;-40
2021/12/29 05:45:56;;;;;;;;;;;8.50;99.90;;;;;;5015208;28;19917;-40
2021/12/29 05:48:22;;;;;;;;;;;8.60;99.90;;;;;;5032653;28;19912;-42
2021/12/29 05:50:47;;;;;;;;;;;8.50;99.90;;;;;;5033101;28;20028;-40
2021/12/29 05:53:12;;;;;;;;;;;8.50;99.90;;;;;;5032506;28;19905;-39
2021/12/29 05:55:41;;;;;;;;;;;8.50;99.90;;;;;;5032923;28;19915;-39
2021/12/29 05:58:08;;;;;;;;;;;8.50;99.90;;;;;;5013920;28;19918;-40
2021/12/29 06:00:33;;;;;;;;;;;8.60;99.90;;;;;;5012682;28;20427;-40
2021/12/29 06:02:59;;;;;;;;;;;8.60;99.90;;;;;;5013049;28;19921;-40
2021/12/29 06:05:24;;;;;;;;;;;8.60;99.90;;;;;;5014539;28;19906;-40
2021/12/29 06:07:50;;;;;;;;;;;8.50;99.90;;;;;;5032236;28;19905;-40
2021/12/29 06:10:16;;;;;;;;;;;8.60;99.90;;;;;;5032930;28;19909;-40
2021/12/29 06:12:41;;;;;;;;;;;8.60;99.90;;;;;;5036068;28;19967;-41
2021/12/29 06:15:07;;;;;;;;;;;8.50;99.90;;;;;;5035775;28;19925;-41
2021/12/29 06:17:33;;;;;;;;;;;8.50;99.90;;;;;;5019717;28;19910;-40
2021/12/29 06:19:59;;;;;;;;;;;8.50;99.90;;;;;;5016585;28;20360;-39
2021/12/29 06:22:24;;;;;;;;;;;8.50;99.90;;;;;;5016010;28;19920;-41
2021/12/29 06:24:53;;;;;;;;;;;8.40;99.90;;;;;;5016502;28;19905;-41
2021/12/29 06:27:20;;;;;;;;;;;8.40;99.90;;;;;;5034441;28;19909;-40
2021/12/29 06:29:45;;;;;;;;;;;8.40;99.90;;;;;;5035743;28;19963;-41
2021/12/29 06:32:11;;;;;;;;;;;8.40;99.90;;;;;;5036151;28;19944;-40
2021/12/29 06:34:37;;;;;;;;;;;8.40;99.90;;;;;;5036093;28;19916;-41
2021/12/29 06:37:03;;;;;;;;;;;8.40;99.90;;;;;;5018437;28;19913;-40
2021/12/29 06:39:29;;;;;;;;;;;8.40;99.90;;;;;;5016218;28;19936;-40
2021/12/29 06:41:54;;;;;;;;;;;8.40;99.90;;;;;;5015847;28;20341;-39
2021/12/29 06:44:20;;;;;;;;;;;8.40;99.90;;;;;;5015741;28;19913;-39
2021/12/29 06:46:45;;;;;;;;;;;8.40;99.90;;;;;;5029805;28;20375;-40
2021/12/29 06:49:11;;;;;;;;;;;8.40;99.90;;;;;;5035710;28;20333;-40
2021/12/29 06:51:36;;;;;;;;;;;8.40;99.90;;;;;;5035359;28;19905;-41
2021/12/29 06:54:02;;;;;;;;;;;8.40;99.90;;;;;;5035644;28;19905;-41
2021/12/29 06:56:27;;;;;;;;;;;8.40;99.90;;;;;;5033182;28;19996;-40
2021/12/29 06:58:52;;;;;;;;;;;8.40;99.90;;;;;;5035160;28;19991;-42
2021/12/29 07:01:18;;;;;;;;;;;8.40;99.90;;;;;;5035608;28;19919;-40
2021/12/29 07:03:43;;;;;;;;;;;8.40;99.90;;;;;;5026506;28;20391;-40
2021/12/29 07:06:09;;;;;;;;;;;8.40;99.90;;;;;;5015577;28;19909;-40
2021/12/29 07:08:34;;;;;;;;;;;8.40;99.90;;;;;;5015715;28;20250;-40
2021/12/29 07:11:01;;;;;;;;;;;8.40;99.90;;;;;;5015027;28;19906;-39
2021/12/29 07:13:26;;;;;;;;;;;8.40;99.90;;;;;;5017592;28;19909;-40
2021/12/29 07:15:52;;;;;;;;;;;8.40;99.90;;;;;;5015451;28;19912;-39
2021/12/29 07:18:17;;;;;;;;;;;8.40;99.90;;;;;;5014915;28;20348;-40
2021/12/29 07:20:44;;;;;;;;;;;8.40;99.90;;;;;;5015567;28;20277;-40
2021/12/29 07:23:10;;;;;;;;;;;8.40;99.90;;;;;;5017232;28;19972;-40
2021/12/29 07:25:35;;;;;;;;;;;8.40;99.90;;;;;;5034703;28;20002;-39
2021/12/29 07:28:01;;;;;;;;;;;8.40;99.90;;;;;;5034926;28;20384;-39
2021/12/29 07:30:26;;;;;;;;;;;8.40;99.90;;;;;;5035124;28;20307;-40
2021/12/29 07:32:51;;;;;;;;;;;8.40;99.90;;;;;;5034509;28;19905;-40
2021/12/29 07:35:17;;;;;;;;;;;8.40;99.90;;;;;;5015377;28;19948;-41
2021/12/29 07:37:43;;;;;;;;;;;8.40;99.90;;;;;;5015173;28;20264;-41
2021/12/29 07:40:09;;;;;;;;;;;8.40;99.90;;;;;;5014248;28;19964;-40
2021/12/29 07:42:35;;;;;;;;;;;8.40;99.90;;;;;;5014949;28;20020;-39
2021/12/29 07:45:03;;;;;;;;;;;8.40;99.90;;;;;;5014488;28;19912;-40
2021/12/29 07:47:29;;;;;;;;;;;8.40;99.90;;;;;;5005812;28;19913;-40
2021/12/29 07:49:54;;;;;;;;;;;8.40;99.90;;;;;;5003507;28;19913;-40
2021/12/29 07:52:20;;;;;;;;;;;8.40;99.90;;;;;;5005689;28;21749;-40
2021/12/29 07:54:45;;;;;;;;;;;8.40;99.90;;;;;;5002296;28;19967;-40
2021/12/29 07:57:11;;;;;;;;;;;8.40;99.90;;;;;;5003169;28;19972;-39
2021/12/29 07:59:36;;;;;;;;;;;8.40;99.90;;;;;;5004965;28;19948;-40
2021/12/29 08:02:02;;;;;;;;;;;8.40;99.90;;;;;;5006497;28;19913;-40
2021/12/29 08:04:28;;;;;;;;;;;8.40;99.90;;;;;;5009148;28;19944;-41
2021/12/29 08:06:53;;;;;;;;;;;8.40;99.90;;;;;;5033265;28;19905;-40
2021/12/29 08:09:19;;;;;;;;;;;8.40;99.90;;;;;;5033352;28;19905;-41
2021/12/29 08:11:44;;;;;;;;;;;8.40;99.90;;;;;;5033682;28;20386;-41
2021/12/29 08:14:10;;;;;;;;;;;8.40;99.90;;;;;;5025147;28;19914;-40
2021/12/29 08:16:36;;;;;;;;;;;8.40;99.90;;;;;;5015606;28;20004;-40
2021/12/29 08:19:01;;;;;;;;;;;8.40;99.90;;;;;;5033378;28;19912;-40
2021/12/29 08:21:27;;;;;;;;;;;8.40;99.90;;;;;;5032491;28;20023;-41
2021/12/29 08:23:52;;;;;;;;;;;8.40;99.90;;;;;;5033454;28;19971;-41
2021/12/29 08:26:18;;;;;;;;;;;8.40;99.90;;;;;;5033139;28;19912;-40
2021/12/29 08:28:44;;;;;;;;;;;8.40;99.90;;;;;;5013388;28;19909;-40
2021/12/29 08:31:09;;;;;;;;;;;8.40;99.90;;;;;;5013543;28;19997;-40
2021/12/29 08:33:38;;;;;;;;;;;8.40;99.90;;;;;;5012696;28;19916;-40
2021/12/29 08:36:04;;;;;;;;;;;8.50;99.90;;;;;;5014063;28;19909;-41
2021/12/29 08:38:30;;;;;;;;;;;8.40;99.90;;;;;;5031963;28;19915;-40
2021/12/29 08:40:55;;;;;;;;;;;8.50;99.90;;;;;;5033135;28;19995;-40
2021/12/29 08:43:21;;;;;;;;;;;8.50;99.90;;;;;;5032194;28;19957;-41
2021/12/29 08:45:46;;;;;;;;;;;8.50;99.90;;;;;;5025757;28;19917;-42
2021/12/29 08:48:12;;;;;;;;;;;8.50;99.90;;;;;;5008839;28;19920;-40
2021/12/29 08:50:38;;;;;;;;;;;8.50;99.90;;;;;;5000466;28;20277;-40
2021/12/29 08:53:04;;;;;;;;;;;8.50;99.90;;;;;;5002693;28;19906;-41
2021/12/29 08:55:31;;;;;;;;;;;8.50;99.90;;;;;;5001003;28;19948;-40
2021/12/29 08:57:56;;;;;;;;;;;8.50;99.90;;;;;;5001566;28;19928;-40
2021/12/29 09:00:22;;;;;;;;;;;8.50;99.90;;;;;;5002256;28;19906;-41
2021/12/29 09:02:48;;;;;;;;;;;8.60;99.90;;;;;;5003898;28;19975;-40
2021/12/29 09:05:16;;;;;;;;;;;8.60;99.90;;;;;;5002347;28;19909;-40
2021/12/29 09:07:42;;;;;;;;;;;8.60;99.90;;;;;;5005922;28;19909;-40
2021/12/29 09:10:08;;;;;;;;;;;8.60;99.90;;;;;;5000550;28;20646;-40
2021/12/29 09:12:34;;;;;;;;;;;8.60;99.90;;;;;;5004847;28;19920;-40
2021/12/29 09:14:59;;;;;;;;;;;8.60;99.90;;;;;;5001917;28;19906;-40
2021/12/29 09:17:25;;;;;;;;;;;8.60;99.90;;;;;;5000412;28;19906;-40
2021/12/29 09:19:50;;;;;;;;;;;8.70;99.90;;;;;;5002931;28;19905;-41
2021/12/29 09:22:16;;;;;;;;;;;8.70;99.90;;;;;;5003031;28;19922;-40
2021/12/29 09:24:46;;;;;;;;;;;8.70;99.90;;;;;;5003883;28;19913;-42
2021/12/29 09:27:12;;;;;;;;;;;8.70;99.90;;;;;;5002683;28;19940;-40
2021/12/29 09:29:37;;;;;;;;;;;8.70;99.90;;;;;;5001635;28;19960;-40
2021/12/29 09:32:04;;;;;;;;;;;8.70;99.90;;;;;;5002142;28;19913;-41
2021/12/29 09:34:30;;;;;;;;;;;8.70;99.90;;;;;;5002513;28;19912;-41
2021/12/29 09:36:55;;;;;;;;;;;8.80;99.90;;;;;;5001144;28;19906;-40
2021/12/29 09:39:21;;;;;;;;;;;8.80;99.90;;;;;;5000865;28;19909;-40
2021/12/29 09:41:46;;;;;;;;;;;8.80;99.90;;;;;;5003629;28;19917;-40
2021/12/29 09:44:12;;;;;;;;;;;8.80;99.90;;;;;;5005784;28;19913;-40
2021/12/29 09:46:38;;;;;;;;;;;8.90;99.90;;;;;;5003416;28;19995;-40
2021/12/29 09:49:04;;;;;;;;;;;8.90;99.90;;;;;;5003850;28;19916;-41
2021/12/29 09:51:30;;;;;;;;;;;8.90;99.90;;;;;;5006093;28;19984;-40
2021/12/29 09:53:56;;;;;;;;;;;8.90;99.90;;;;;;5009356;28;19996;-40
2021/12/29 09:56:21;;;;;;;;;;;8.90;99.90;;;;;;5004416;28;19909;-40
2021/12/29 09:58:47;;;;;;;;;;;8.90;99.90;;;;;;5001482;28;20353;-41
2021/12/29 10:01:12;;;;;;;;;;;8.90;99.90;;;;;;4996021;28;20324;-41
2021/12/29 10:03:38;;;;;;;;;;;9.00;99.90;;;;;;5023320;28;19917;-41
2021/12/29 10:06:05;;;;;;;;;;;9.00;99.90;;;;;;5036015;28;20052;-41
2021/12/29 10:08:31;;;;;;;;;;;9.00;99.90;;;;;;5035134;28;19933;-40
2021/12/29 10:10:59;;;;;;;;;;;9.00;99.90;;;;;;5034564;28;20260;-41
2021/12/29 10:13:27;;;;;;;;;;;9.00;99.90;;;;;;5004621;28;20245;-39
2021/12/29 10:15:54;;;;;;;;;;;9.00;99.90;;;;;;5016311;28;19912;-40
2021/12/29 10:18:24;;;;;;;;;;;9.00;99.90;;;;;;5016194;28;19916;-39
2021/12/29 10:20:55;;;;;;;;;;;9.00;99.90;;;;;;5015379;28;19927;-41
2021/12/29 10:23:25;;;;;;;;;;;9.10;99.90;;;;;;5002404;28;20333;-40
2021/12/29 10:25:51;;;;;;;;;;;9.10;99.90;;;;;;5002184;28;20388;-41
2021/12/29 10:28:19;;;;;;;;;;;9.10;99.90;;;;;;5004207;28;20384;-40
2021/12/29 10:30:45;;;;;;;;;;;9.10;99.90;;;;;;4996271;28;19906;-40
2021/12/29 10:33:11;;;;;;;;;;;9.10;99.90;;;;;;5016924;28;19913;-40
2021/12/29 10:35:37;;;;;;;;;;;9.10;99.90;;;;;;5015751;28;19909;-41
2021/12/29 10:38:20;;;;;;;;;;;9.10;99.90;;;;;;5016239;28;19952;-40
2021/12/29 10:40:46;;;;;;;;;;;9.10;99.90;;;;;;5016317;28;19953;-39
2021/12/29 10:43:12;;;;;;;;;;;9.10;99.90;;;;;;5034177;28;20366;-40
2021/12/29 10:45:42;;;;;;;;;;;9.20;99.90;;;;;;5035796;28;20359;-40
2021/12/29 10:48:22;;;;;;;;;;;9.20;99.90;;;;;;5035837;28;19941;-41
2021/12/29 10:51:17;;;;;;;;;;;9.20;99.90;;;;;;5035304;28;19913;-39
2021/12/29 10:53:42;;;;;;;;;;;9.20;99.90;;;;;;4983307;28;20265;-40
2021/12/29 10:56:21;;;;;;;;;;;9.20;99.90;;;;;;4995839;28;19906;-39
2021/12/29 10:58:46;;;;;;;;;;;9.20;99.90;;;;;;4996273;28;19922;-39
2021/12/29 11:01:13;;;;;;;;;;;9.20;99.90;;;;;;5000676;28;20550;-40
2021/12/29 11:03:44;;;;;;;;;;;9.20;99.90;;;;;;5035103;28;20352;-40
2021/12/29 11:06:11;;;;;;;;;;;9.20;99.90;;;;;;5035490;28;19987;-40
2021/12/29 11:08:48;;;;;;;;;;;9.20;99.90;;;;;;5035404;28;19909;-40
2021/12/29 11:11:13;;;;;;;;;;;9.20;99.90;;;;;;5032182;28;19913;-40
2021/12/29 11:13:41;;;;;;;;;;;9.20;99.90;;;;;;5015577;28;19945;-40
2021/12/29 11:16:09;;;;;;;;;;;9.20;99.90;;;;;;5015625;28;19967;-41
2021/12/29 11:18:43;;;;;;;;;;;9.20;99.90;;;;;;5014946;28;19905;-41
2021/12/29 11:21:09;;;;;;;;;;;9.20;99.90;;;;;;5030173;28;19909;-40
2021/12/29 11:23:41;;;;;;;;;;;9.20;99.90;;;;;;5035293;28;20011;-39
2021/12/29 11:26:11;;;;;;;;;;;9.20;99.90;;;;;;5034697;28;19952;-40
2021/12/29 11:28:37;;;;;;;;;;;9.30;99.90;;;;;;5035244;28;19909;-39
2021/12/29 11:31:04;;;;;;;;;;;9.30;99.90;;;;;;5020414;28;19906;-40
2021/12/29 11:33:30;;;;;;;;;;;9.30;99.90;;;;;;5015088;28;19940;-39
2021/12/29 11:35:56;;;;;;;;;;;9.30;99.90;;;;;;5015210;28;19909;-40
2021/12/29 11:38:23;;;;;;;;;;;9.30;99.90;;;;;;5014471;28;19967;-40
2021/12/29 11:40:51;;;;;;;;;;;9.30;99.90;;;;;;5026326;28;19905;-40
2021/12/29 11:43:18;;;;;;;;;;;9.40;99.90;;;;;;5034541;28;19917;-41
2021/12/29 11:45:44;;;;;;;;;;;9.40;99.90;;;;;;5034223;28;19905;-40
2021/12/29 11:48:11;;;;;;;;;;;9.40;99.90;;;;;;5034590;28;19909;-40
2021/12/29 11:50:38;;;;;;;;;;;9.40;99.90;;;;;;5021792;28;19906;-39
2021/12/29 11:53:23;;;;;;;;;;;9.50;99.90;;;;;;5014332;28;20012;-40
2021/12/29 11:55:50;;;;;;;;;;;9.50;99.90;;;;;;5014915;28;19968;-40
2021/12/29 11:58:18;;;;;;;;;;;9.50;99.90;;;;;;5014584;28;19928;-40
2021/12/29 12:00:47;;;;;;;;;;;9.50;99.90;;;;;;5027298;28;20003;-40
2021/12/29 12:03:15;;;;;;;;;;;9.50;99.90;;;;;;5034306;28;20033;-39
2021/12/29 12:05:43;;;;;;;;;;;9.50;99.90;;;;;;5034425;28;19921;-39
2021/12/29 12:08:10;;;;;;;;;;;9.50;99.90;;;;;;5033361;28;19959;-40
2021/12/29 12:10:37;;;;;;;;;;;9.50;99.90;;;;;;5018985;28;19913;-42
2021/12/29 12:13:05;;;;;;;;;;;9.60;99.90;;;;;;5013168;28;19932;-41
2021/12/29 12:15:36;;;;;;;;;;;9.50;99.90;;;;;;5013959;28;19912;-41
2021/12/29 12:18:07;;;;;;;;;;;9.50;99.90;;;;;;5010730;28;20300;-39
2021/12/29 12:20:40;;;;;;;;;;;9.60;99.90;;;;;;5014218;28;19972;-40
2021/12/29 12:23:06;;;;;;;;;;;9.50;99.90;;;;;;5003593;28;19957;-40
2021/12/29 12:25:32;;;;;;;;;;;9.50;99.90;;;;;;5002771;28;19947;-41
2021/12/29 12:28:02;;;;;;;;;;;9.50;99.90;;;;;;5004712;28;19906;-39
2021/12/29 12:30:38;;;;;;;;;;;9.50;99.90;;;;;;5003421;28;19909;-41
2021/12/29 12:33:22;;;;;;;;;;;9.50;99.90;;;;;;5004790;28;20295;-40
2021/12/29 12:35:48;;;;;;;;;;;9.50;99.90;;;;;;5004339;28;19912;-41
2021/12/29 12:38:17;;;;;;;;;;;9.50;99.90;;;;;;5003594;28;19963;-39
2021/12/29 12:40:43;;;;;;;;;;;9.50;99.90;;;;;;5011481;28;19910;-40
2021/12/29 12:43:11;;;;;;;;;;;9.50;99.90;;;;;;5004797;28;19956;-42
2021/12/29 12:45:39;;;;;;;;;;;9.50;99.90;;;;;;5006648;28;19906;-39
2021/12/29 12:48:06;;;;;;;;;;;9.50;99.90;;;;;;5003474;28;19953;-39
2021/12/29 12:50:31;;;;;;;;;;;9.50;99.90;;;;;;5008335;28;19909;-40
2021/12/29 12:52:57;;;;;;;;;;;9.50;99.90;;;;;;5010628;28;19916;-40
2021/12/29 12:55:24;;;;;;;;;;;9.50;99.90;;;;;;5008491;28;19912;-40
2021/12/29 12:57:50;;;;;;;;;;;9.40;99.90;;;;;;5005639;28;20396;-39
2021/12/29 13:00:16;;;;;;;;;;;9.40;99.90;;;;;;5001822;28;19917;-40
2021/12/29 13:02:43;;;;;;;;;;;9.40;99.90;;;;;;4993524;28;19914;-42
2021/12/29 13:05:17;;;;;;;;;;;9.40;99.90;;;;;;4994043;28;20052;-40
2021/12/29 13:07:43;;;;;;;;;;;9.40;99.90;;;;;;4995895;28;20349;-40
2021/12/29 13:10:10;;;;;;;;;;;9.40;99.90;;;;;;5029077;28;19916;-40
2021/12/29 13:12:39;;;;;;;;;;;9.40;99.90;;;;;;5028159;28;19905;-40
2021/12/29 13:15:09;;;;;;;;;;;9.40;99.90;;;;;;5003479;28;19964;-41
2021/12/29 13:17:35;;;;;;;;;;;9.40;99.90;;;;;;5006848;28;19948;-40
2021/12/29 13:20:00;;;;;;;;;;;9.40;99.90;;;;;;5029885;28;19909;-40
2021/12/29 13:22:28;;;;;;;;;;;9.40;99.90;;;;;;5006593;28;19917;-40
2021/12/29 13:25:02;;;;;;;;;;;9.40;99.90;;;;;;5017061;28;19911;-40
2021/12/29 13:27:28;;;;;;;;;;;9.40;99.90;;;;;;5017619;28;20361;-39
2021/12/29 13:29:58;;;;;;;;;;;9.40;99.90;;;;;;5037013;28;19909;-40
2021/12/29 13:32:24;;;;;;;;;;;9.40;99.90;;;;;;5036537;28;19936;-39
2021/12/29 13:34:59;;;;;;;;;;;9.40;99.90;;;;;;5037149;28;19971;-41
2021/12/29 13:37:25;;;;;;;;;;;9.40;99.90;;;;;;5035898;28;19958;-42
2021/12/29 13:39:54;;;;;;;;;;;9.30;99.90;;;;;;5017240;28;19909;-40
2021/12/29 13:42:19;;;;;;;;;;;9.30;99.90;;;;;;5016903;28;20491;-40
2021/12/29 13:44:44;;;;;;;;;;;9.30;99.90;;;;;;5007368;28;20008;-41
2021/12/29 13:47:10;;;;;;;;;;;9.40;99.90;;;;;;5005201;28;19948;-40
2021/12/29 13:49:35;;;;;;;;;;;9.40;99.90;;;;;;5013738;28;19906;-41
2021/12/29 13:52:02;;;;;;;;;;;9.30;99.90;;;;;;5004833;28;20410;-41
2021/12/29 13:54:29;;;;;;;;;;;9.40;99.90;;;;;;5004924;28;19910;-40
2021/12/29 13:56:55;;;;;;;;;;;9.40;99.90;;;;;;4999775;28;19921;-39
2021/12/29 13:59:22;;;;;;;;;;;9.30;99.90;;;;;;5019212;28;19925;-41
2021/12/29 14:01:48;;;;;;;;;;;9.30;99.90;;;;;;5019288;28;19925;-39
2021/12/29 14:04:21;;;;;;;;;;;9.30;99.90;;;;;;5007125;28;19905;-40
2021/12/29 14:06:47;;;;;;;;;;;9.30;99.90;;;;;;5006968;28;19956;-40
2021/12/29 14:09:13;;;;;;;;;;;9.20;99.90;;;;;;5013647;28;20354;-39
2021/12/29 14:11:40;;;;;;;;;;;9.20;99.90;;;;;;5010028;28;19909;-41
2021/12/29 14:14:07;;;;;;;;;;;9.20;99.90;;;;;;5006874;28;19910;-40
2021/12/29 14:16:33;;;;;;;;;;;9.10;99.90;;;;;;5005688;28;19948;-40
2021/12/29 14:19:01;;;;;;;;;;;9.10;99.90;;;;;;5012081;28;19917;-39
2021/12/29 14:21:28;;;;;;;;;;;9.20;99.90;;;;;;5007050;28;19905;-40
2021/12/29 14:23:58;;;;;;;;;;;9.10;99.90;;;;;;5007453;28;19937;-40
2021/12/29 14:26:24;;;;;;;;;;;9.10;99.90;;;;;;5004403;28;19913;-39
2021/12/29 14:28:51;;;;;;;;;;;9.10;99.90;;;;;;5010859;28;19920;-40
2021/12/29 14:31:16;;;;;;;;;;;9.10;99.90;;;;;;5004557;28;19912;-40
2021/12/29 14:33:43;;;;;;;;;;;9.10;99.90;;;;;;5005948;28;20007;-42
2021/12/29 14:36:10;;;;;;;;;;;9.10;99.90;;;;;;5001809;28;19905;-39
2021/12/29 14:38:36;;;;;;;;;;;9.10;99.90;;;;;;5005572;28;19955;-41